sensor_id;sensor_type;location;lat;lon;timestamp;temperature;humidity
66312;HTU21D;53114;51.138;6.008;2023-10-19T00:01:16;13.05;118.99
66312;HTU21D;53114;51.138;6.008;2023-10-19T00:03:43;13.03;118.99
66312;HTU21D;53114;51.138;6.008;2023-10-19T00:06:10;13.03;118.99
66312;HTU21D;53114;51.138;6.008;2023-10-19T00:08:37;13.05;118.99
66312;HTU21D;53114;51.138;6.008;2023-10-19T00:11:10;13.05;118.99
66312;HTU21D;53114;51.138;6.008;2023-10-19T00:13:47;13.05;118.99
66312;HTU21D;53114;51.138;6.008;2023-10-19T00:16:17;13.08;118.99
66312;HTU21D;53114;51.138;6.008;2023-10-19T00:18:44;13.14;118.99
66312;HTU21D;53114;51.138;6.008;2023-10-19T00:21:10;13.16;118.99
66312;HTU21D;53114;51.138;6.008;2023-10-19T00:23:38;13.19;118.99
66312;HTU21D;53114;51.138;6.008;2023-10-19T00:26:05;13.14;118.99
66312;HTU21D;53114;51.138;6.008;2023-10-19T00:28:39;13.15;118.99
66312;HTU21D;53114;51.138;6.008;2023-10-19T00:31:06;13.10;118.99
66312;HTU21D;53114;51.138;6.008;2023-10-19T00:33:35;13.08;118.99
66312;HTU21D;53114;51.138;6.008;2023-10-19T00:36:05;13.08;118.99
66312;HTU21D;53114;51.138;6.008;2023-10-19T00:38:40;13.10;118.99
66312;HTU21D;53114;51.138;6.008;2023-10-19T00:41:22;13.12;118.99
66312;HTU21D;53114;51.138;6.008;2023-10-19T00:43:56;13.12;118.99
66312;HTU21D;53114;51.138;6.008;2023-10-19T00:46:29;13.16;118.99
66312;HTU21D;53114;51.138;6.008;2023-10-19T00:49:11;13.21;118.99
66312;HTU21D;53114;51.138;6.008;2023-10-19T00:51:45;13.24;118.99
66312;HTU21D;53114;51.138;6.008;2023-10-19T00:54:26;13.25;118.99
66312;HTU21D;53114;51.138;6.008;2023-10-19T00:57:00;13.26;118.99
66312;HTU21D;53114;51.138;6.008;2023-10-19T00:59:32;13.29;118.99
66312;HTU21D;53114;51.138;6.008;2023-10-19T01:02:04;13.32;118.99
66312;HTU21D;53114;51.138;6.008;2023-10-19T01:04:50;13.38;118.99
66312;HTU21D;53114;51.138;6.008;2023-10-19T01:07:19;13.40;118.99
66312;HTU21D;53114;51.138;6.008;2023-10-19T01:10:00;13.40;118.99
66312;HTU21D;53114;51.138;6.008;2023-10-19T01:12:27;13.41;118.99
66312;HTU21D;53114;51.138;6.008;2023-10-19T01:15:12;13.43;118.99
66312;HTU21D;53114;51.138;6.008;2023-10-19T01:17:59;13.47;118.99
66312;HTU21D;53114;51.138;6.008;2023-10-19T01:20:29;13.46;118.99
66312;HTU21D;53114;51.138;6.008;2023-10-19T01:23:04;13.47;118.99
66312;HTU21D;53114;51.138;6.008;2023-10-19T01:25:48;13.49;118.99
66312;HTU21D;53114;51.138;6.008;2023-10-19T01:28:34;13.50;118.99
66312;HTU21D;53114;51.138;6.008;2023-10-19T01:31:10;13.52;118.99
66312;HTU21D;53114;51.138;6.008;2023-10-19T01:33:45;13.55;118.99
66312;HTU21D;53114;51.138;6.008;2023-10-19T01:36:12;13.60;118.99
66312;HTU21D;53114;51.138;6.008;2023-10-19T01:39:01;13.63;118.99
66312;HTU21D;53114;51.138;6.008;2023-10-19T01:41:27;13.64;118.99
66312;HTU21D;53114;51.138;6.008;2023-10-19T01:43:57;13.60;118.99
66312;HTU21D;53114;51.138;6.008;2023-10-19T01:46:30;13.58;118.99
66312;HTU21D;53114;51.138;6.008;2023-10-19T01:49:01;13.58;118.99
66312;HTU21D;53114;51.138;6.008;2023-10-19T01:51:30;13.56;118.99
66312;HTU21D;53114;51.138;6.008;2023-10-19T01:53:59;13.59;118.99
66312;HTU21D;53114;51.138;6.008;2023-10-19T01:56:28;13.65;118.99
66312;HTU21D;53114;51.138;6.008;2023-10-19T01:58:55;13.71;118.99
66312;HTU21D;53114;51.138;6.008;2023-10-19T02:01:23;13.86;118.99
66312;HTU21D;53114;51.138;6.008;2023-10-19T02:03:52;14.09;118.99
66312;HTU21D;53114;51.138;6.008;2023-10-19T02:06:26;14.30;118.99
66312;HTU21D;53114;51.138;6.008;2023-10-19T02:08:59;14.50;118.99
66312;HTU21D;53114;51.138;6.008;2023-10-19T02:11:36;14.65;118.99
66312;HTU21D;53114;51.138;6.008;2023-10-19T02:14:08;14.79;118.99
66312;HTU21D;53114;51.138;6.008;2023-10-19T02:16:48;14.88;118.99
66312;HTU21D;53114;51.138;6.008;2023-10-19T02:19:23;14.96;118.99
66312;HTU21D;53114;51.138;6.008;2023-10-19T02:21:55;15.00;118.99
66312;HTU21D;53114;51.138;6.008;2023-10-19T02:24:22;15.04;118.99
66312;HTU21D;53114;51.138;6.008;2023-10-19T02:26:54;15.06;118.99
66312;HTU21D;53114;51.138;6.008;2023-10-19T02:29:21;15.09;118.99
66312;HTU21D;53114;51.138;6.008;2023-10-19T02:31:55;15.08;118.99
66312;HTU21D;53114;51.138;6.008;2023-10-19T02:34:21;15.08;118.99
66312;HTU21D;53114;51.138;6.008;2023-10-19T02:36:48;15.04;118.99
66312;HTU21D;53114;51.138;6.008;2023-10-19T02:39:15;15.07;118.99
66312;HTU21D;53114;51.138;6.008;2023-10-19T02:41:45;15.08;118.99
66312;HTU21D;53114;51.138;6.008;2023-10-19T02:44:19;15.07;118.99
66312;HTU21D;53114;51.138;6.008;2023-10-19T02:46:50;15.03;118.99
66312;HTU21D;53114;51.138;6.008;2023-10-19T02:49:18;15.01;118.99
66312;HTU21D;53114;51.138;6.008;2023-10-19T02:51:50;15.02;118.99
66312;HTU21D;53114;51.138;6.008;2023-10-19T02:54:20;15.06;118.99
66312;HTU21D;53114;51.138;6.008;2023-10-19T02:56:52;15.10;118.99
66312;HTU21D;53114;51.138;6.008;2023-10-19T02:59:21;15.16;118.99
66312;HTU21D;53114;51.138;6.008;2023-10-19T03:01:52;15.19;118.99
66312;HTU21D;53114;51.138;6.008;2023-10-19T03:04:20;15.24;118.99
66312;HTU21D;53114;51.138;6.008;2023-10-19T03:06:46;15.28;118.99
66312;HTU21D;53114;51.138;6.008;2023-10-19T03:09:13;15.31;118.99
66312;HTU21D;53114;51.138;6.008;2023-10-19T03:11:43;15.33;118.99
66312;HTU21D;53114;51.138;6.008;2023-10-19T03:14:11;15.31;118.99
66312;HTU21D;53114;51.138;6.008;2023-10-19T03:16:38;15.22;118.99
66312;HTU21D;53114;51.138;6.008;2023-10-19T03:19:08;15.15;118.99
66312;HTU21D;53114;51.138;6.008;2023-10-19T03:21:35;15.10;118.99
66312;HTU21D;53114;51.138;6.008;2023-10-19T03:24:15;15.01;118.99
66312;HTU21D;53114;51.138;6.008;2023-10-19T03:26:59;14.99;118.99
66312;HTU21D;53114;51.138;6.008;2023-10-19T03:29:25;14.97;118.99
66312;HTU21D;53114;51.138;6.008;2023-10-19T03:31:57;14.98;118.99
66312;HTU21D;53114;51.138;6.008;2023-10-19T03:34:24;15.00;118.99
66312;HTU21D;53114;51.138;6.008;2023-10-19T03:36:50;14.99;118.99
66312;HTU21D;53114;51.138;6.008;2023-10-19T03:39:16;14.98;118.99
66312;HTU21D;53114;51.138;6.008;2023-10-19T03:41:46;14.97;118.99
66312;HTU21D;53114;51.138;6.008;2023-10-19T03:44:12;14.98;118.99
66312;HTU21D;53114;51.138;6.008;2023-10-19T03:46:44;14.99;118.99
66312;HTU21D;53114;51.138;6.008;2023-10-19T03:49:22;14.97;118.99
66312;HTU21D;53114;51.138;6.008;2023-10-19T03:51:48;14.97;118.99
66312;HTU21D;53114;51.138;6.008;2023-10-19T03:54:25;14.96;118.99
66312;HTU21D;53114;51.138;6.008;2023-10-19T03:56:54;14.95;118.99
66312;HTU21D;53114;51.138;6.008;2023-10-19T03:59:21;14.93;118.99
66312;HTU21D;53114;51.138;6.008;2023-10-19T04:01:47;14.93;118.99
66312;HTU21D;53114;51.138;6.008;2023-10-19T04:04:13;14.93;118.99
66312;HTU21D;53114;51.138;6.008;2023-10-19T04:06:40;14.85;118.99
66312;HTU21D;53114;51.138;6.008;2023-10-19T04:09:06;14.78;118.99
66312;HTU21D;53114;51.138;6.008;2023-10-19T04:11:35;14.70;118.99
66312;HTU21D;53114;51.138;6.008;2023-10-19T04:14:17;14.63;118.99
66312;HTU21D;53114;51.138;6.008;2023-10-19T04:16:44;14.59;118.99
66312;HTU21D;53114;51.138;6.008;2023-10-19T04:19:11;14.55;118.99
66312;HTU21D;53114;51.138;6.008;2023-10-19T04:21:37;14.53;118.99
66312;HTU21D;53114;51.138;6.008;2023-10-19T04:24:10;14.50;118.99
66312;HTU21D;53114;51.138;6.008;2023-10-19T04:26:37;14.44;118.99
66312;HTU21D;53114;51.138;6.008;2023-10-19T04:29:04;14.43;118.99
66312;HTU21D;53114;51.138;6.008;2023-10-19T04:31:37;14.41;118.99
66312;HTU21D;53114;51.138;6.008;2023-10-19T04:34:06;14.40;118.99
66312;HTU21D;53114;51.138;6.008;2023-10-19T04:36:35;14.40;118.99
66312;HTU21D;53114;51.138;6.008;2023-10-19T04:39:01;14.39;118.99
66312;HTU21D;53114;51.138;6.008;2023-10-19T04:41:28;14.38;118.99
66312;HTU21D;53114;51.138;6.008;2023-10-19T04:43:54;14.36;118.99
66312;HTU21D;53114;51.138;6.008;2023-10-19T04:46:20;14.34;118.99
66312;HTU21D;53114;51.138;6.008;2023-10-19T04:48:46;14.38;118.99
66312;HTU21D;53114;51.138;6.008;2023-10-19T04:51:12;14.38;118.99
66312;HTU21D;53114;51.138;6.008;2023-10-19T04:53:38;14.37;118.99
66312;HTU21D;53114;51.138;6.008;2023-10-19T04:56:06;14.37;118.99
66312;HTU21D;53114;51.138;6.008;2023-10-19T04:58:34;14.35;118.99
66312;HTU21D;53114;51.138;6.008;2023-10-19T05:01:00;14.30;118.99
66312;HTU21D;53114;51.138;6.008;2023-10-19T05:03:29;14.27;118.99
66312;HTU21D;53114;51.138;6.008;2023-10-19T05:05:55;14.25;118.99
66312;HTU21D;53114;51.138;6.008;2023-10-19T05:08:24;14.29;118.99
66312;HTU21D;53114;51.138;6.008;2023-10-19T05:10:54;14.32;118.99
66312;HTU21D;53114;51.138;6.008;2023-10-19T05:13:24;14.34;118.99
66312;HTU21D;53114;51.138;6.008;2023-10-19T05:15:55;14.34;118.99
66312;HTU21D;53114;51.138;6.008;2023-10-19T05:18:22;14.33;118.99
66312;HTU21D;53114;51.138;6.008;2023-10-19T05:20:49;14.32;118.99
66312;HTU21D;53114;51.138;6.008;2023-10-19T05:23:24;14.33;118.99
66312;HTU21D;53114;51.138;6.008;2023-10-19T05:26:02;14.35;118.99
66312;HTU21D;53114;51.138;6.008;2023-10-19T05:28:28;14.39;118.99
66312;HTU21D;53114;51.138;6.008;2023-10-19T05:30:54;14.40;118.99
66312;HTU21D;53114;51.138;6.008;2023-10-19T05:33:20;14.40;118.99
66312;HTU21D;53114;51.138;6.008;2023-10-19T05:35:47;14.38;118.99
66312;HTU21D;53114;51.138;6.008;2023-10-19T05:38:13;14.40;118.99
66312;HTU21D;53114;51.138;6.008;2023-10-19T05:40:39;14.41;118.99
66312;HTU21D;53114;51.138;6.008;2023-10-19T05:43:09;14.42;118.99
66312;HTU21D;53114;51.138;6.008;2023-10-19T05:45:35;14.45;118.99
66312;HTU21D;53114;51.138;6.008;2023-10-19T05:48:02;14.50;118.99
66312;HTU21D;53114;51.138;6.008;2023-10-19T05:50:35;14.53;118.99
66312;HTU21D;53114;51.138;6.008;2023-10-19T05:53:02;14.56;118.99
66312;HTU21D;53114;51.138;6.008;2023-10-19T05:55:29;14.58;118.99
66312;HTU21D;53114;51.138;6.008;2023-10-19T05:57:55;14.62;118.99
66312;HTU21D;53114;51.138;6.008;2023-10-19T06:00:21;14.66;118.99
66312;HTU21D;53114;51.138;6.008;2023-10-19T06:02:51;14.69;118.99
66312;HTU21D;53114;51.138;6.008;2023-10-19T06:05:18;14.71;118.99
66312;HTU21D;53114;51.138;6.008;2023-10-19T06:07:46;14.74;118.99
66312;HTU21D;53114;51.138;6.008;2023-10-19T06:10:16;14.78;118.99
66312;HTU21D;53114;51.138;6.008;2023-10-19T06:12:46;14.81;118.99
66312;HTU21D;53114;51.138;6.008;2023-10-19T06:15:22;14.84;118.99
66312;HTU21D;53114;51.138;6.008;2023-10-19T06:17:50;14.89;118.99
66312;HTU21D;53114;51.138;6.008;2023-10-19T06:20:16;14.94;118.99
66312;HTU21D;53114;51.138;6.008;2023-10-19T06:22:46;14.95;118.99
66312;HTU21D;53114;51.138;6.008;2023-10-19T06:25:20;14.95;118.99
66312;HTU21D;53114;51.138;6.008;2023-10-19T06:27:50;14.96;118.99
66312;HTU21D;53114;51.138;6.008;2023-10-19T06:30:18;14.96;118.99
66312;HTU21D;53114;51.138;6.008;2023-10-19T06:32:52;14.98;118.99
66312;HTU21D;53114;51.138;6.008;2023-10-19T06:35:19;15.02;118.99
66312;HTU21D;53114;51.138;6.008;2023-10-19T06:37:46;15.04;118.99
66312;HTU21D;53114;51.138;6.008;2023-10-19T06:40:14;15.08;118.99
66312;HTU21D;53114;51.138;6.008;2023-10-19T06:42:46;15.10;118.99
66312;HTU21D;53114;51.138;6.008;2023-10-19T06:45:13;15.14;118.99
66312;HTU21D;53114;51.138;6.008;2023-10-19T06:47:45;15.17;118.99
66312;HTU21D;53114;51.138;6.008;2023-10-19T06:50:14;15.22;118.99
66312;HTU21D;53114;51.138;6.008;2023-10-19T06:52:42;15.30;118.99
66312;HTU21D;53114;51.138;6.008;2023-10-19T06:55:10;15.33;118.99
66312;HTU21D;53114;51.138;6.008;2023-10-19T06:57:43;15.34;118.99
66312;HTU21D;53114;51.138;6.008;2023-10-19T07:00:17;15.38;118.99
66312;HTU21D;53114;51.138;6.008;2023-10-19T07:02:48;15.37;118.99
66312;HTU21D;53114;51.138;6.008;2023-10-19T07:05:14;15.39;118.99
66312;HTU21D;53114;51.138;6.008;2023-10-19T07:07:45;15.40;118.99
66312;HTU21D;53114;51.138;6.008;2023-10-19T07:10:14;15.42;118.99
66312;HTU21D;53114;51.138;6.008;2023-10-19T07:12:43;15.46;118.99
66312;HTU21D;53114;51.138;6.008;2023-10-19T07:15:10;15.51;118.99
66312;HTU21D;53114;51.138;6.008;2023-10-19T07:17:46;15.58;118.99
66312;HTU21D;53114;51.138;6.008;2023-10-19T07:20:14;15.63;118.99
66312;HTU21D;53114;51.138;6.008;2023-10-19T07:23:02;15.71;118.99
66312;HTU21D;53114;51.138;6.008;2023-10-19T07:25:45;15.81;118.99
66312;HTU21D;53114;51.138;6.008;2023-10-19T07:28:12;15.86;118.99
66312;HTU21D;53114;51.138;6.008;2023-10-19T07:30:39;15.97;118.99
66312;HTU21D;53114;51.138;6.008;2023-10-19T07:33:05;16.03;118.99
66312;HTU21D;53114;51.138;6.008;2023-10-19T07:35:35;16.15;118.99
66312;HTU21D;53114;51.138;6.008;2023-10-19T07:38:03;16.24;118.99
66312;HTU21D;53114;51.138;6.008;2023-10-19T07:40:30;16.33;118.99
66312;HTU21D;53114;51.138;6.008;2023-10-19T07:42:56;16.37;118.99
66312;HTU21D;53114;51.138;6.008;2023-10-19T07:45:22;16.37;118.99
66312;HTU21D;53114;51.138;6.008;2023-10-19T07:47:48;16.36;118.99
66312;HTU21D;53114;51.138;6.008;2023-10-19T07:50:14;16.36;118.99
66312;HTU21D;53114;51.138;6.008;2023-10-19T07:52:48;16.34;118.99
66312;HTU21D;53114;51.138;6.008;2023-10-19T07:55:16;16.32;118.99
66312;HTU21D;53114;51.138;6.008;2023-10-19T07:57:45;16.31;118.99
66312;HTU21D;53114;51.138;6.008;2023-10-19T08:00:12;16.31;118.99
66312;HTU21D;53114;51.138;6.008;2023-10-19T08:02:42;16.39;118.99
66312;HTU21D;53114;51.138;6.008;2023-10-19T08:05:11;16.43;118.99
66312;HTU21D;53114;51.138;6.008;2023-10-19T08:07:41;16.46;118.99
66312;HTU21D;53114;51.138;6.008;2023-10-19T08:10:11;16.49;118.99
66312;HTU21D;53114;51.138;6.008;2023-10-19T08:12:38;16.56;118.99
66312;HTU21D;53114;51.138;6.008;2023-10-19T08:15:08;16.70;118.99
66312;HTU21D;53114;51.138;6.008;2023-10-19T08:17:41;16.89;118.99
66312;HTU21D;53114;51.138;6.008;2023-10-19T08:20:09;17.62;118.99
66312;HTU21D;53114;51.138;6.008;2023-10-19T08:22:36;18.44;118.99
66312;HTU21D;53114;51.138;6.008;2023-10-19T08:25:03;19.42;118.99
66312;HTU21D;53114;51.138;6.008;2023-10-19T08:27:30;20.41;118.99
66312;HTU21D;53114;51.138;6.008;2023-10-19T08:29:58;20.87;118.99
66312;HTU21D;53114;51.138;6.008;2023-10-19T08:32:25;21.25;115.93
66312;HTU21D;53114;51.138;6.008;2023-10-19T08:34:52;21.85;103.09
66312;HTU21D;53114;51.138;6.008;2023-10-19T08:37:18;22.68;91.65
66312;HTU21D;53114;51.138;6.008;2023-10-19T08:39:44;23.35;83.14
66312;HTU21D;53114;51.138;6.008;2023-10-19T08:42:10;24.02;72.38
66312;HTU21D;53114;51.138;6.008;2023-10-19T08:44:36;24.73;68.87
66312;HTU21D;53114;51.138;6.008;2023-10-19T08:47:02;24.77;66.70
66312;HTU21D;53114;51.138;6.008;2023-10-19T08:49:31;24.50;66.60
66312;HTU21D;53114;51.138;6.008;2023-10-19T08:51:59;24.03;69.59
66312;HTU21D;53114;51.138;6.008;2023-10-19T08:54:26;23.90;71.03
66312;HTU21D;53114;51.138;6.008;2023-10-19T08:56:52;24.24;72.70
66312;HTU21D;53114;51.138;6.008;2023-10-19T08:59:21;24.18;70.51
66312;HTU21D;53114;51.138;6.008;2023-10-19T09:01:47;24.33;68.73
66312;HTU21D;53114;51.138;6.008;2023-10-19T09:04:14;23.94;67.69
66312;HTU21D;53114;51.138;6.008;2023-10-19T09:06:42;23.31;68.75
66312;HTU21D;53114;51.138;6.008;2023-10-19T09:09:12;22.53;72.11
66312;HTU21D;53114;51.138;6.008;2023-10-19T09:11:51;22.62;79.59
66312;HTU21D;53114;51.138;6.008;2023-10-19T09:14:36;23.17;78.28
66312;HTU21D;53114;51.138;6.008;2023-10-19T09:17:05;24.02;75.15
66312;HTU21D;53114;51.138;6.008;2023-10-19T09:22:04;24.38;68.26
66312;HTU21D;53114;51.138;6.008;2023-10-19T09:24:48;23.50;68.87
66312;HTU21D;53114;51.138;6.008;2023-10-19T09:27:19;23.26;72.90
66312;HTU21D;53114;51.138;6.008;2023-10-19T09:29:46;22.98;74.95
66312;HTU21D;53114;51.138;6.008;2023-10-19T09:32:12;22.50;75.15
66312;HTU21D;53114;51.138;6.008;2023-10-19T09:34:41;22.28;77.90
66312;HTU21D;53114;51.138;6.008;2023-10-19T09:37:11;22.36;79.78
66312;HTU21D;53114;51.138;6.008;2023-10-19T09:39:37;22.36;79.09
66312;HTU21D;53114;51.138;6.008;2023-10-19T09:42:07;22.28;78.47
66312;HTU21D;53114;51.138;6.008;2023-10-19T09:47:15;21.87;78.93
66312;HTU21D;53114;51.138;6.008;2023-10-19T09:49:44;21.33;81.90
66312;HTU21D;53114;51.138;6.008;2023-10-19T09:52:11;20.86;85.02
66312;HTU21D;53114;51.138;6.008;2023-10-19T09:54:57;20.33;89.26
66312;HTU21D;53114;51.138;6.008;2023-10-19T09:57:55;20.03;95.84
66312;HTU21D;53114;51.138;6.008;2023-10-19T10:00:22;19.97;98.12
66312;HTU21D;53114;51.138;6.008;2023-10-19T10:02:52;19.91;99.30
66312;HTU21D;53114;51.138;6.008;2023-10-19T10:10:49;20.01;103.28
66312;HTU21D;53114;51.138;6.008;2023-10-19T10:15:55;20.85;96.51
66312;HTU21D;53114;51.138;6.008;2023-10-19T10:18:24;21.20;92.11
66312;HTU21D;53114;51.138;6.008;2023-10-19T10:23:41;21.52;88.05
66312;HTU21D;53114;51.138;6.008;2023-10-19T10:26:12;21.64;86.06
66312;HTU21D;53114;51.138;6.008;2023-10-19T10:28:40;21.81;86.06
66312;HTU21D;53114;51.138;6.008;2023-10-19T10:42:23;20.89;94.49
66312;HTU21D;53114;51.138;6.008;2023-10-19T10:48:28;20.69;99.71
66312;HTU21D;53114;51.138;6.008;2023-10-19T10:50:54;20.78;101.51
66312;HTU21D;53114;51.138;6.008;2023-10-19T10:53:23;20.85;100.11
66312;HTU21D;53114;51.138;6.008;2023-10-19T10:55:53;20.77;97.32
66312;HTU21D;53114;51.138;6.008;2023-10-19T10:58:19;20.66;96.19
66312;HTU21D;53114;51.138;6.008;2023-10-19T11:00:46;20.54;97.34
66312;HTU21D;53114;51.138;6.008;2023-10-19T11:03:17;20.46;98.33
66312;HTU21D;53114;51.138;6.008;2023-10-19T11:05:43;20.50;103.19
66312;HTU21D;53114;51.138;6.008;2023-10-19T11:08:16;20.68;106.51
66312;HTU21D;53114;51.138;6.008;2023-10-19T11:10:44;20.88;101.62
66312;HTU21D;53114;51.138;6.008;2023-10-19T11:13:16;21.05;99.11
66312;HTU21D;53114;51.138;6.008;2023-10-19T11:15:53;21.24;99.42
66312;HTU21D;53114;51.138;6.008;2023-10-19T11:18:38;21.32;99.11
66312;HTU21D;53114;51.138;6.008;2023-10-19T11:21:12;21.28;100.25
66312;HTU21D;53114;51.138;6.008;2023-10-19T11:23:47;21.18;103.25
66312;HTU21D;53114;51.138;6.008;2023-10-19T11:26:17;21.14;102.86
66312;HTU21D;53114;51.138;6.008;2023-10-19T11:28:43;21.07;104.39
66312;HTU21D;53114;51.138;6.008;2023-10-19T11:31:23;20.95;108.06
66312;HTU21D;53114;51.138;6.008;2023-10-19T11:33:53;20.85;107.00
66312;HTU21D;53114;51.138;6.008;2023-10-19T11:36:21;20.73;105.26
66312;HTU21D;53114;51.138;6.008;2023-10-19T11:38:51;20.59;108.61
66312;HTU21D;53114;51.138;6.008;2023-10-19T11:41:17;20.42;110.00
66312;HTU21D;53114;51.138;6.008;2023-10-19T11:43:47;20.26;109.81
66312;HTU21D;53114;51.138;6.008;2023-10-19T11:46:14;20.16;111.98
66312;HTU21D;53114;51.138;6.008;2023-10-19T11:48:41;20.12;112.92
66312;HTU21D;53114;51.138;6.008;2023-10-19T11:51:08;20.14;113.45
66312;HTU21D;53114;51.138;6.008;2023-10-19T11:53:38;20.17;114.50
66312;HTU21D;53114;51.138;6.008;2023-10-19T11:56:06;20.16;114.61
66312;HTU21D;53114;51.138;6.008;2023-10-19T11:58:34;20.12;115.98
66312;HTU21D;53114;51.138;6.008;2023-10-19T12:01:01;20.05;116.08
66312;HTU21D;53114;51.138;6.008;2023-10-19T12:03:45;19.98;118.99
66312;HTU21D;53114;51.138;6.008;2023-10-19T12:06:12;19.91;118.30
66312;HTU21D;53114;51.138;6.008;2023-10-19T12:08:44;19.90;118.99
66312;HTU21D;53114;51.138;6.008;2023-10-19T12:11:10;19.88;118.99
66312;HTU21D;53114;51.138;6.008;2023-10-19T12:13:44;19.85;118.99
66312;HTU21D;53114;51.138;6.008;2023-10-19T12:16:14;19.81;118.99
66312;HTU21D;53114;51.138;6.008;2023-10-19T12:18:44;19.80;118.99
66312;HTU21D;53114;51.138;6.008;2023-10-19T12:21:11;19.79;118.99
66312;HTU21D;53114;51.138;6.008;2023-10-19T12:23:44;19.77;118.99
66312;HTU21D;53114;51.138;6.008;2023-10-19T12:26:10;19.76;118.99
66312;HTU21D;53114;51.138;6.008;2023-10-19T12:28:41;19.75;118.99
66312;HTU21D;53114;51.138;6.008;2023-10-19T12:31:08;19.73;118.99
66312;HTU21D;53114;51.138;6.008;2023-10-19T12:33:38;19.68;118.99
66312;HTU21D;53114;51.138;6.008;2023-10-19T12:36:05;19.60;118.99
66312;HTU21D;53114;51.138;6.008;2023-10-19T12:38:55;19.53;118.99
66312;HTU21D;53114;51.138;6.008;2023-10-19T12:41:21;19.48;118.99
66312;HTU21D;53114;51.138;6.008;2023-10-19T12:43:48;19.44;118.99
66312;HTU21D;53114;51.138;6.008;2023-10-19T12:46:14;19.45;118.99
66312;HTU21D;53114;51.138;6.008;2023-10-19T12:48:42;19.50;118.99
66312;HTU21D;53114;51.138;6.008;2023-10-19T12:51:08;19.52;118.99
66312;HTU21D;53114;51.138;6.008;2023-10-19T12:53:40;19.54;118.99
66312;HTU21D;53114;51.138;6.008;2023-10-19T12:56:06;19.56;118.99
66312;HTU21D;53114;51.138;6.008;2023-10-19T12:58:33;19.54;118.99
66312;HTU21D;53114;51.138;6.008;2023-10-19T13:00:59;19.52;118.99
66312;HTU21D;53114;51.138;6.008;2023-10-19T13:03:25;19.47;118.99
66312;HTU21D;53114;51.138;6.008;2023-10-19T13:05:58;19.45;118.99
66312;HTU21D;53114;51.138;6.008;2023-10-19T13:08:24;19.46;118.99
66312;HTU21D;53114;51.138;6.008;2023-10-19T13:10:53;19.43;118.99
66312;HTU21D;53114;51.138;6.008;2023-10-19T13:13:20;19.43;118.99
66312;HTU21D;53114;51.138;6.008;2023-10-19T13:15:50;19.38;118.99
66312;HTU21D;53114;51.138;6.008;2023-10-19T13:18:15;19.36;118.99
66312;HTU21D;53114;51.138;6.008;2023-10-19T13:20:46;19.30;118.99
66312;HTU21D;53114;51.138;6.008;2023-10-19T13:23:12;19.26;118.99
66312;HTU21D;53114;51.138;6.008;2023-10-19T13:25:39;19.18;118.99
66312;HTU21D;53114;51.138;6.008;2023-10-19T13:28:13;19.11;118.99
66312;HTU21D;53114;51.138;6.008;2023-10-19T13:30:41;19.03;118.99
66312;HTU21D;53114;51.138;6.008;2023-10-19T13:33:09;18.94;118.99
66312;HTU21D;53114;51.138;6.008;2023-10-19T13:35:39;18.89;118.99
66312;HTU21D;53114;51.138;6.008;2023-10-19T13:38:07;18.82;118.99
66312;HTU21D;53114;51.138;6.008;2023-10-19T13:40:34;18.77;118.99
66312;HTU21D;53114;51.138;6.008;2023-10-19T13:43:02;18.71;118.99
66312;HTU21D;53114;51.138;6.008;2023-10-19T13:45:48;18.62;118.99
66312;HTU21D;53114;51.138;6.008;2023-10-19T13:48:15;18.55;118.99
66312;HTU21D;53114;51.138;6.008;2023-10-19T13:50:44;18.51;118.99
66312;HTU21D;53114;51.138;6.008;2023-10-19T13:53:11;18.49;118.99
66312;HTU21D;53114;51.138;6.008;2023-10-19T13:55:37;18.40;118.99
66312;HTU21D;53114;51.138;6.008;2023-10-19T13:58:03;18.35;118.99
66312;HTU21D;53114;51.138;6.008;2023-10-19T14:00:29;18.28;118.99
66312;HTU21D;53114;51.138;6.008;2023-10-19T14:02:57;18.22;118.99
66312;HTU21D;53114;51.138;6.008;2023-10-19T14:05:24;18.15;118.99
66312;HTU21D;53114;51.138;6.008;2023-10-19T14:07:51;18.14;118.99
66312;HTU21D;53114;51.138;6.008;2023-10-19T14:10:20;18.14;118.99
66312;HTU21D;53114;51.138;6.008;2023-10-19T14:12:48;18.21;118.99
66312;HTU21D;53114;51.138;6.008;2023-10-19T14:15:15;18.23;118.99
66312;HTU21D;53114;51.138;6.008;2023-10-19T14:17:41;18.23;118.99
66312;HTU21D;53114;51.138;6.008;2023-10-19T14:20:08;18.20;118.99
66312;HTU21D;53114;51.138;6.008;2023-10-19T14:22:45;18.19;118.99
66312;HTU21D;53114;51.138;6.008;2023-10-19T14:25:12;18.15;118.99
66312;HTU21D;53114;51.138;6.008;2023-10-19T14:27:43;18.15;118.99
66312;HTU21D;53114;51.138;6.008;2023-10-19T14:30:11;18.18;118.99
66312;HTU21D;53114;51.138;6.008;2023-10-19T14:32:48;18.20;118.99
66312;HTU21D;53114;51.138;6.008;2023-10-19T14:35:17;18.23;118.99
66312;HTU21D;53114;51.138;6.008;2023-10-19T14:37:48;18.22;118.99
66312;HTU21D;53114;51.138;6.008;2023-10-19T14:40:17;18.21;118.99
66312;HTU21D;53114;51.138;6.008;2023-10-19T14:42:43;18.25;118.99
66312;HTU21D;53114;51.138;6.008;2023-10-19T14:45:11;18.34;118.99
66312;HTU21D;53114;51.138;6.008;2023-10-19T14:47:40;18.38;118.99
66312;HTU21D;53114;51.138;6.008;2023-10-19T14:50:11;18.34;118.99
66312;HTU21D;53114;51.138;6.008;2023-10-19T14:52:43;18.30;118.99
66312;HTU21D;53114;51.138;6.008;2023-10-19T14:55:10;18.26;118.99
66312;HTU21D;53114;51.138;6.008;2023-10-19T14:57:39;18.21;118.99
66312;HTU21D;53114;51.138;6.008;2023-10-19T15:00:08;18.17;118.99
66312;HTU21D;53114;51.138;6.008;2023-10-19T15:02:43;18.20;118.99
66312;HTU21D;53114;51.138;6.008;2023-10-19T15:05:09;18.19;118.99
66312;HTU21D;53114;51.138;6.008;2023-10-19T15:07:41;18.17;118.99
66312;HTU21D;53114;51.138;6.008;2023-10-19T15:10:08;18.24;118.99
66312;HTU21D;53114;51.138;6.008;2023-10-19T15:12:41;18.22;118.99
66312;HTU21D;53114;51.138;6.008;2023-10-19T15:15:10;18.17;118.99
66312;HTU21D;53114;51.138;6.008;2023-10-19T15:17:40;18.11;118.99
66312;HTU21D;53114;51.138;6.008;2023-10-19T15:20:08;18.02;118.99
66312;HTU21D;53114;51.138;6.008;2023-10-19T15:22:38;17.93;118.99
66312;HTU21D;53114;51.138;6.008;2023-10-19T15:25:05;17.90;118.99
66312;HTU21D;53114;51.138;6.008;2023-10-19T15:27:36;17.89;118.99
66312;HTU21D;53114;51.138;6.008;2023-10-19T15:30:05;17.84;118.99
66312;HTU21D;53114;51.138;6.008;2023-10-19T15:32:32;17.79;118.99
66312;HTU21D;53114;51.138;6.008;2023-10-19T15:34:58;17.75;118.99
66312;HTU21D;53114;51.138;6.008;2023-10-19T15:37:24;17.69;118.99
66312;HTU21D;53114;51.138;6.008;2023-10-19T15:39:51;17.63;118.99
66312;HTU21D;53114;51.138;6.008;2023-10-19T15:42:18;17.61;118.99
66312;HTU21D;53114;51.138;6.008;2023-10-19T15:44:45;17.58;118.99
66312;HTU21D;53114;51.138;6.008;2023-10-19T15:47:15;17.50;118.99
66312;HTU21D;53114;51.138;6.008;2023-10-19T15:49:51;17.44;118.99